Time;durP1;ratioP1;P1;durP2;ratioP2;P2;SDS_P1;SDS_P2;PMS_P1;PMS_P2;Temp;Humidity;BMP_temperature;BMP_pressure;BME280_temperature;BME280_humidity;BME280_pressure;Samples;Min_cycle;Max_cycle;Signal;HPM_P1;HPM_P2
2021/01/25 00:00:58;;;;;;;1.80;1.70;;;;;;;6.58;85.68;98302.47;1598329;87;22234;-58
2021/01/25 00:03:25;;;;;;;2.27;1.47;;;;;;;6.58;85.67;98313.17;1611809;87;21410;-58
2021/01/25 00:05:53;;;;;;;1.93;1.20;;;;;;;6.59;85.67;98308.69;1616831;87;22096;-57
2021/01/25 00:08:20;;;;;;;2.37;1.40;;;;;;;6.58;85.71;98304.28;1609732;87;21571;-58
2021/01/25 00:10:48;;;;;;;1.30;1.20;;;;;;;6.56;85.67;98308.37;1610194;87;21175;-57
2021/01/25 00:13:15;;;;;;;2.73;1.67;;;;;;;6.57;85.72;98305.23;1615471;87;21254;-59
2021/01/25 00:15:43;;;;;;;1.83;1.30;;;;;;;6.56;85.72;98303.03;1613872;87;21481;-57
2021/01/25 00:18:10;;;;;;;1.60;1.17;;;;;;;6.54;85.75;98299.59;1602386;87;21308;-58
2021/01/25 00:20:37;;;;;;;1.57;1.27;;;;;;;6.53;85.75;98295.66;1608398;87;21247;-59
2021/01/25 00:23:04;;;;;;;1.50;1.33;;;;;;;6.53;85.73;98299.67;1613675;87;21588;-58
2021/01/25 00:25:32;;;;;;;1.30;1.00;;;;;;;6.51;85.66;98310.45;1614538;87;21207;-57
2021/01/25 00:28:00;;;;;;;1.13;1.03;;;;;;;6.52;85.65;98309.50;1577061;89;21784;-58
2021/01/25 00:30:27;;;;;;;1.23;1.07;;;;;;;6.51;85.67;98301.09;1644972;85;21231;-58
2021/01/25 00:32:55;;;;;;;1.20;1.00;;;;;;;6.51;85.71;98298.42;1643785;85;21227;-59
2021/01/25 00:35:22;;;;;;;1.93;1.73;;;;;;;6.52;85.71;98294.80;1612851;87;21219;-58
2021/01/25 00:37:49;;;;;;;1.77;1.67;;;;;;;6.53;85.71;98288.52;1612708;87;21240;-57
2021/01/25 00:40:17;;;;;;;1.67;1.53;;;;;;;6.53;85.72;98280.49;1614587;87;21398;-58
2021/01/25 00:42:44;;;;;;;2.00;1.77;;;;;;;6.52;85.68;98274.75;1605027;87;21247;-58
2021/01/25 00:45:13;;;;;;;1.40;1.23;;;;;;;6.51;85.67;98274.83;1613435;87;22630;-59
2021/01/25 00:47:40;;;;;;;1.20;1.00;;;;;;;6.51;85.64;98274.36;1606324;87;21485;-57
2021/01/25 00:50:09;;;;;;;1.07;0.97;;;;;;;6.51;85.61;98271.69;1615908;87;21271;-58
2021/01/25 00:52:37;;;;;;;1.00;0.90;;;;;;;6.51;85.61;98266.81;1607348;87;21303;-58
2021/01/25 00:55:07;;;;;;;1.00;0.80;;;;;;;6.50;85.61;98267.28;1610676;87;21247;-57
2021/01/25 00:57:34;;;;;;;1.50;0.93;;;;;;;6.51;85.63;98254.78;1615628;87;21160;-56
2021/01/25 01:00:06;;;;;;;1.33;1.00;;;;;;;6.52;85.64;98261.86;1605374;87;21248;-58
2021/01/25 01:02:33;;;;;;;1.10;1.00;;;;;;;6.52;85.61;98263.20;1613003;87;21765;-59
2021/01/25 01:05:02;;;;;;;2.50;1.10;;;;;;;6.51;85.64;98265.48;1605637;87;21391;-56
2021/01/25 01:07:30;;;;;;;1.53;1.00;;;;;;;6.51;85.66;98264.14;1605425;87;21834;-57
2021/01/25 01:09:57;;;;;;;1.20;1.10;;;;;;;6.52;85.58;98257.38;1606663;87;21267;-58
2021/01/25 01:12:24;;;;;;;0.90;0.80;;;;;;;6.52;85.52;98256.52;1615014;87;22459;-58
2021/01/25 01:14:51;;;;;;;0.80;0.70;;;;;;;6.51;85.50;98256.98;1617168;87;21144;-58
2021/01/25 01:17:19;;;;;;;0.77;0.70;;;;;;;6.52;85.52;98257.38;1610938;87;21891;-56
2021/01/25 01:19:46;;;;;;;0.70;0.70;;;;;;;6.54;85.50;98248.80;1604736;87;21235;-58
2021/01/25 01:22:13;;;;;;;0.97;0.70;;;;;;;6.54;85.48;98248.80;1614462;87;21188;-56
2021/01/25 01:24:41;;;;;;;1.00;0.80;;;;;;;6.54;85.54;98248.80;1613154;87;21256;-57
2021/01/25 01:27:08;;;;;;;1.23;0.93;;;;;;;6.54;85.44;98254.63;1613549;87;21244;-58
2021/01/25 01:29:35;;;;;;;0.80;0.80;;;;;;;6.49;85.32;98252.66;1646652;85;22489;-59
2021/01/25 01:32:02;;;;;;;0.80;0.70;;;;;;;6.48;85.32;98253.13;1642889;85;21224;-57
2021/01/25 01:34:30;;;;;;;0.60;0.60;;;;;;;6.50;85.32;98253.05;1645748;85;21247;-58
2021/01/25 01:36:57;;;;;;;1.23;0.80;;;;;;;6.48;85.31;98251.80;1648238;85;21555;-57
2021/01/25 01:39:24;;;;;;;1.10;0.60;;;;;;;6.48;85.32;98258.95;1614797;87;21224;-57
2021/01/25 01:41:52;;;;;;;0.63;0.63;;;;;;;6.46;85.33;98259.06;1603068;87;21962;-57
2021/01/25 01:44:19;;;;;;;0.70;0.70;;;;;;;6.46;85.33;98252.38;1614505;87;21287;-57
2021/01/25 01:46:46;;;;;;;1.00;0.90;;;;;;;6.45;85.35;98254.66;1611257;87;21245;-57
2021/01/25 01:49:14;;;;;;;0.60;0.60;;;;;;;6.42;85.33;98250.34;1614524;87;21185;-58
2021/01/25 01:51:41;;;;;;;0.80;0.80;;;;;;;6.43;85.30;98249.87;1607215;87;21663;-57
2021/01/25 01:54:09;;;;;;;0.60;0.60;;;;;;;6.43;85.28;98256.55;1614611;87;21235;-58
2021/01/25 01:56:36;;;;;;;4.00;0.70;;;;;;;6.41;85.30;98255.29;1616005;87;21160;-58
2021/01/25 01:59:03;;;;;;;0.50;0.50;;;;;;;6.41;85.33;98246.41;1618118;87;21144;-59
2021/01/25 02:01:31;;;;;;;0.60;0.60;;;;;;;6.41;85.37;98243.27;1604514;87;21173;-59
2021/01/25 02:03:58;;;;;;;0.80;0.77;;;;;;;6.41;85.35;98244.59;1614745;87;21599;-57
2021/01/25 02:06:25;;;;;;;0.80;0.70;;;;;;;6.40;85.43;98250.02;1616523;87;22297;-57
2021/01/25 02:08:53;;;;;;;1.40;0.80;;;;;;;6.39;85.43;98256.31;1608668;87;21156;-58
2021/01/25 02:11:21;;;;;;;1.30;0.80;;;;;;;6.36;85.40;98254.69;1611476;87;21164;-57
2021/01/25 02:13:49;;;;;;;1.00;0.80;;;;;;;6.34;85.42;98258.38;1617410;87;21550;-58
2021/01/25 02:16:16;;;;;;;0.80;0.70;;;;;;;6.32;85.38;98259.80;1630284;86;21180;-58
2021/01/25 02:18:43;;;;;;;0.70;0.70;;;;;;;6.33;85.47;98262.00;1663571;84;21978;-56
2021/01/25 02:21:12;;;;;;;1.07;0.80;;;;;;;6.32;85.48;98274.97;1649874;85;21167;-55
2021/01/25 02:24:16;;;;;;;0.80;0.70;;;;;;;6.32;85.55;98268.29;1635659;86;21215;-57
2021/01/25 02:27:01;;;;;;;0.73;0.70;;;;;;;6.32;85.60;98267.81;1648599;85;21267;-58
2021/01/25 02:29:28;;;;;;;1.05;0.95;;;;;;;6.32;85.60;98266.48;1631252;86;21270;-57
2021/01/25 02:31:55;;;;;;;3.23;1.00;;;;;;;6.30;85.61;98265.70;1636590;86;21231;-57
2021/01/25 02:34:24;;;;;;;1.87;1.00;;;;;;;6.28;85.63;98262.73;1669742;84;21560;-58
2021/01/25 02:36:51;;;;;;;1.23;1.13;;;;;;;6.27;85.62;98267.69;1649515;85;21502;-58
2021/01/25 02:39:18;;;;;;;1.20;1.10;;;;;;;6.27;85.62;98272.56;1662766;84;21989;-58
2021/01/25 02:41:45;;;;;;;1.23;1.13;;;;;;;6.26;85.61;98270.83;1661934;84;21215;-59
2021/01/25 02:44:13;;;;;;;1.07;0.90;;;;;;;6.25;85.67;98266.43;1648090;85;22511;-56
2021/01/25 02:46:40;;;;;;;1.33;1.23;;;;;;;6.25;85.67;98264.23;1656957;85;21214;-59
2021/01/25 02:49:08;;;;;;;1.90;1.37;;;;;;;6.24;85.67;98273.19;1633037;86;21251;-59
2021/01/25 02:51:35;;;;;;;1.70;1.60;;;;;;;6.24;85.73;98279.87;1646667;85;21142;-59
2021/01/25 02:54:03;;;;;;;1.90;1.50;;;;;;;6.23;85.72;98281.67;1626131;86;21219;-58
2021/01/25 02:56:31;;;;;;;3.87;1.23;;;;;;;6.22;85.71;98274.59;1628682;86;22381;-58
2021/01/25 02:58:58;;;;;;;2.47;1.47;;;;;;;6.22;85.67;98280.41;1595764;88;21206;-59
2021/01/25 03:01:26;;;;;;;1.30;1.10;;;;;;;6.23;85.67;98279.47;1625351;84;21827;-59
2021/01/25 03:03:54;;;;;;;1.30;1.10;;;;;;;6.22;85.69;98283.09;1669438;84;21202;-59
2021/01/25 03:06:21;;;;;;;1.40;1.20;;;;;;;6.21;85.67;98278.22;1668612;84;21660;-59
2021/01/25 03:08:49;;;;;;;2.10;1.07;;;;;;;6.22;85.72;98285.76;1661174;84;21677;-59
2021/01/25 03:11:19;;;;;;;3.97;1.37;;;;;;;6.22;85.72;98281.75;1663249;84;21526;-59
2021/01/25 03:13:46;;;;;;;1.53;1.40;;;;;;;6.22;85.74;98277.27;1665182;84;22319;-58
2021/01/25 03:16:17;;;;;;;1.77;1.20;;;;;;;6.21;85.76;98274.71;1653971;84;21227;-58
2021/01/25 03:18:45;;;;;;;1.57;1.47;;;;;;;6.21;85.79;98272.04;1602792;87;21254;-59
2021/01/25 03:21:12;;;;;;;1.30;1.20;;;;;;;6.21;85.73;98256.01;1603484;87;21553;-58
2021/01/25 03:23:39;;;;;;;1.70;1.60;;;;;;;6.22;85.67;98261.71;1605516;87;21602;-58
2021/01/25 03:26:07;;;;;;;1.47;1.10;;;;;;;6.22;85.62;98256.37;1603070;87;21262;-59
2021/01/25 03:28:34;;;;;;;2.43;1.90;;;;;;;6.20;85.60;98260.48;1605205;87;21511;-58
2021/01/25 03:31:01;;;;;;;1.90;1.67;;;;;;;6.20;85.59;98253.81;1638920;85;21240;-58
2021/01/25 03:33:29;;;;;;;1.57;1.47;;;;;;;6.22;85.56;98251.02;1638591;85;21215;-59
2021/01/25 03:38:26;;;;;;;2.37;2.00;;;;;;;6.24;85.49;98237.12;1793088;78;22660;-58
2021/01/25 03:40:53;;;;;;;2.30;2.10;;;;;;;6.19;85.44;98244.53;1771104;80;21207;-59
2021/01/25 03:43:21;;;;;;;2.20;1.93;;;;;;;6.18;85.40;98238.33;1733518;80;21117;-58
2021/01/25 03:45:48;;;;;;;1.60;1.50;;;;;;;6.17;85.32;98231.25;1736137;80;21171;-58
2021/01/25 03:48:15;;;;;;;1.63;1.50;;;;;;;6.17;85.29;98235.26;1735011;80;21232;-59
2021/01/25 03:50:42;;;;;;;2.40;1.50;;;;;;;6.19;85.27;98240.52;1734040;80;21306;-58
2021/01/25 03:53:11;;;;;;;1.50;1.20;;;;;;;6.19;85.25;98236.05;1736477;80;21168;-58
2021/01/25 03:55:38;;;;;;;1.40;1.30;;;;;;;6.20;85.20;98231.56;1735780;80;21880;-58
2021/01/25 03:58:05;;;;;;;2.10;1.60;;;;;;;6.20;85.16;98231.09;1702086;82;21600;-58
2021/01/25 04:00:32;;;;;;;2.00;1.23;;;;;;;6.21;85.12;98235.97;1698927;82;21715;-58
2021/01/25 04:02:59;;;;;;;2.33;2.13;;;;;;;6.20;85.01;98239.58;1683424;83;21222;-58
2021/01/25 04:05:27;;;;;;;3.23;1.80;;;;;;;6.17;84.93;98234.39;1701253;82;21181;-58
2021/01/25 04:07:54;;;;;;;2.87;1.60;;;;;;;6.17;84.87;98240.60;1669082;83;21199;-58
2021/01/25 04:10:21;;;;;;;2.30;1.63;;;;;;;6.17;84.84;98232.59;1668525;83;21231;-58
2021/01/25 04:12:48;;;;;;;1.93;1.13;;;;;;;6.16;84.84;98233.53;1677407;83;21226;-58
2021/01/25 04:15:16;;;;;;;2.10;1.30;;;;;;;6.17;84.81;98234.39;1679071;83;21508;-58
2021/01/25 04:17:43;;;;;;;1.53;1.37;;;;;;;6.16;84.75;98230.86;1680143;83;21234;-58
2021/01/25 04:20:11;;;;;;;1.90;1.70;;;;;;;6.17;84.75;98233.06;1683673;83;21739;-58
2021/01/25 04:22:38;;;;;;;2.43;1.63;;;;;;;6.14;84.67;98235.88;1683487;83;21215;-61
2021/01/25 04:25:07;;;;;;;1.67;1.47;;;;;;;6.13;84.67;98240.84;1683356;83;21578;-60
2021/01/25 04:27:35;;;;;;;1.67;1.40;;;;;;;6.12;84.65;98241.34;1703024;82;21196;-60
2021/01/25 04:30:07;;;;;;;1.80;1.70;;;;;;;6.14;84.59;98243.90;1677449;83;21226;-60
2021/01/25 04:32:37;;;;;;;1.53;1.40;;;;;;;6.13;84.57;98245.70;1701780;82;22577;-60
2021/01/25 04:35:07;;;;;;;1.90;1.40;;;;;;;6.13;84.54;98233.69;1679407;83;21596;-61
2021/01/25 04:37:35;;;;;;;1.57;1.47;;;;;;;6.15;84.54;98228.27;1676187;83;21164;-60
2021/01/25 04:40:06;;;;;;;2.17;1.80;;;;;;;6.16;84.52;98231.33;1664476;84;21272;-60
2021/01/25 04:42:33;;;;;;;2.13;1.93;;;;;;;6.15;84.50;98231.80;1670582;84;21117;-58
2021/01/25 04:45:01;;;;;;;2.80;2.43;;;;;;;6.13;84.47;98221.66;1724575;81;21196;-58
2021/01/25 04:47:28;;;;;;;3.40;2.40;;;;;;;6.10;84.43;98225.86;1683205;82;21160;-58
2021/01/25 04:49:55;;;;;;;2.07;1.73;;;;;;;6.08;84.42;98224.59;1721638;81;21132;-58
2021/01/25 04:52:22;;;;;;;2.07;1.93;;;;;;;6.07;84.40;98232.22;1722060;81;21135;-58
2021/01/25 04:54:50;;;;;;;1.80;1.70;;;;;;;6.05;84.44;98228.77;1722776;81;21135;-58
2021/01/25 04:57:17;;;;;;;1.93;1.60;;;;;;;6.04;84.48;98223.02;1701476;81;21228;-59
2021/01/25 04:59:44;;;;;;;2.37;1.47;;;;;;;6.04;84.49;98223.02;1723845;81;22176;-59
2021/01/25 05:02:13;;;;;;;2.27;2.07;;;;;;;6.06;84.50;98221.61;1723401;81;21132;-58
2021/01/25 05:04:40;;;;;;;2.03;1.77;;;;;;;6.04;84.49;98215.02;1666092;84;21432;-59
2021/01/25 05:07:08;;;;;;;2.60;2.27;;;;;;;6.03;84.55;98214.66;1721635;81;21108;-59
2021/01/25 05:09:35;;;;;;;2.20;2.00;;;;;;;6.01;84.51;98216.53;1726960;81;21152;-58
2021/01/25 05:12:03;;;;;;;2.10;1.90;;;;;;;5.97;84.49;98208.28;1723754;81;21774;-58
2021/01/25 05:14:41;;;;;;;1.97;1.87;;;;;;;5.95;84.49;98208.00;1722935;81;21950;-58
2021/01/25 05:17:12;;;;;;;2.00;1.70;;;;;;;5.94;84.47;98211.61;1716691;81;21138;-58
2021/01/25 05:19:42;;;;;;;1.97;1.87;;;;;;;5.93;84.54;98215.22;1720263;81;21371;-58
2021/01/25 05:22:18;;;;;;;1.93;1.73;;;;;;;5.91;84.56;98223.31;1726038;81;21662;-58
2021/01/25 05:24:54;;;;;;;;;;;;;;;5.92;84.57;98221.03;1724672;81;21120;-59
2021/01/25 05:27:29;;;;;;;2.57;2.37;;;;;;;5.92;84.54;98225.52;1720372;81;20282;-59
2021/01/25 05:30:11;;;;;;;2.65;2.45;;;;;;;5.88;84.55;98227.94;1722751;81;21100;-59
2021/01/25 05:32:54;;;;;;;2.30;2.10;;;;;;;5.83;84.52;98226.83;1723482;81;21506;-58
2021/01/25 05:35:30;;;;;;;3.03;2.40;;;;;;;5.83;84.53;98229.97;1725261;81;21251;-59
2021/01/25 05:38:03;;;;;;;2.03;1.53;;;;;;;5.82;84.56;98225.10;1728656;80;21147;-59
2021/01/25 05:40:33;;;;;;;2.00;1.60;;;;;;;5.82;84.56;98233.11;1727885;80;21131;-59
2021/01/25 05:43:01;;;;;;;2.80;1.80;;;;;;;5.83;84.55;98242.85;1727771;80;21200;-59
2021/01/25 05:45:29;;;;;;;4.07;2.10;;;;;;;5.83;84.54;98241.98;1728147;80;21489;-59
2021/01/25 05:47:58;;;;;;;2.67;2.23;;;;;;;5.82;84.54;98241.13;1724776;80;22305;-58
2021/01/25 05:50:35;;;;;;;4.77;2.80;;;;;;;5.83;84.54;98245.99;1726730;80;21187;-61
2021/01/25 05:53:05;;;;;;;2.93;2.53;;;;;;;5.83;84.52;98248.66;1730640;80;21208;-62
2021/01/25 05:55:32;;;;;;;2.80;2.47;;;;;;;5.82;84.50;98249.13;1729921;80;21642;-61
2021/01/25 05:58:00;;;;;;;2.47;2.23;;;;;;;5.84;84.49;98246.39;1729973;80;21214;-61
2021/01/25 06:00:28;;;;;;;4.17;2.40;;;;;;;5.84;84.47;98243.25;1728775;81;23245;-61
2021/01/25 06:02:55;;;;;;;3.73;1.67;;;;;;;5.85;84.42;98232.09;1726080;81;21191;-61
2021/01/25 06:05:41;;;;;;;4.70;3.03;;;;;;;5.86;84.38;98229.34;1726603;81;21235;-58
2021/01/25 06:08:38;;;;;;;3.37;3.07;;;;;;;5.86;84.34;98234.69;1723818;81;21374;-60
2021/01/25 06:11:22;;;;;;;3.30;2.80;;;;;;;5.84;84.37;98235.23;1721945;80;21200;-60
2021/01/25 06:13:56;;;;;;;2.60;2.13;;;;;;;5.84;84.33;98226.36;1727146;80;21659;-61
2021/01/25 06:16:26;;;;;;;2.45;2.25;;;;;;;5.84;84.30;98225.03;1722408;80;22341;-60
2021/01/25 06:18:58;;;;;;;2.43;2.13;;;;;;;5.84;84.21;98218.35;1734651;80;21239;-60
2021/01/25 06:21:28;;;;;;;2.00;1.73;;;;;;;5.83;84.22;98212.61;1698041;80;21183;-60
2021/01/25 06:23:55;;;;;;;2.77;1.50;;;;;;;5.84;84.21;98199.66;1730410;81;21220;-60
2021/01/25 06:26:25;;;;;;;3.20;2.50;;;;;;;5.85;84.14;98191.58;1729166;81;21742;-60
2021/01/25 06:28:53;;;;;;;2.63;2.17;;;;;;;5.87;84.12;98204.84;1733596;81;21340;-61
2021/01/25 06:31:20;;;;;;;2.43;1.97;;;;;;;5.87;84.12;98208.85;1730640;80;21254;-60
2021/01/25 06:33:49;;;;;;;2.70;2.27;;;;;;;5.86;84.04;98210.66;1737984;80;21507;-61
2021/01/25 06:36:17;;;;;;;2.17;1.97;;;;;;;5.84;84.00;98216.55;1732100;80;21111;-61
2021/01/25 06:38:48;;;;;;;3.80;1.60;;;;;;;5.83;83.90;98217.48;1731159;80;22850;-61
2021/01/25 06:41:16;;;;;;;3.57;1.93;;;;;;;5.84;83.85;98223.69;1732383;80;21171;-60
2021/01/25 06:43:46;;;;;;;1.80;1.63;;;;;;;5.82;83.85;98221.09;1738993;80;20978;-62
2021/01/25 06:46:20;;;;;;;2.20;1.70;;;;;;;5.83;83.84;98225.50;1727903;80;21645;-60
2021/01/25 06:48:49;;;;;;;3.33;2.67;;;;;;;5.83;83.71;98222.83;1726940;80;21732;-60
2021/01/25 06:51:19;;;;;;;3.30;1.80;;;;;;;5.83;83.74;98224.16;1723971;80;21209;-60
2021/01/25 06:53:49;;;;;;;3.67;2.23;;;;;;;5.82;83.72;98230.44;1730224;80;21203;-60
2021/01/25 06:56:17;;;;;;;1.43;1.30;;;;;;;5.81;83.67;98226.05;1733218;80;21104;-60
2021/01/25 06:58:48;;;;;;;2.53;1.87;;;;;;;5.81;83.64;98222.03;1733898;80;21183;-59
2021/01/25 07:01:20;;;;;;;1.80;1.70;;;;;;;5.82;83.51;98216.23;1675825;83;21204;-61
2021/01/25 07:03:56;;;;;;;1.70;1.30;;;;;;;5.80;83.45;98217.64;1738798;80;21453;-60
2021/01/25 07:06:34;;;;;;;1.70;1.40;;;;;;;5.79;83.50;98221.72;1727557;80;21574;-62
2021/01/25 07:09:04;;;;;;;2.27;1.50;;;;;;;5.79;83.42;98222.58;1729549;80;21192;-60
2021/01/25 07:11:33;;;;;;;2.53;2.00;;;;;;;5.79;83.39;98232.40;1675269;83;21206;-61
2021/01/25 07:14:00;;;;;;;2.33;2.13;;;;;;;5.77;83.35;98222.30;1735757;80;21120;-59
2021/01/25 07:16:27;;;;;;;2.47;2.27;;;;;;;5.74;83.32;98224.65;1676775;83;22137;-61
2021/01/25 07:18:55;;;;;;;1.90;1.67;;;;;;;5.70;83.25;98215.06;1729921;80;21250;-61
2021/01/25 07:21:22;;;;;;;2.43;1.80;;;;;;;5.69;83.28;98220.03;1730328;80;21187;-64
2021/01/25 07:23:50;;;;;;;2.03;1.93;;;;;;;5.67;83.29;98221.91;1726299;80;21211;-60
2021/01/25 07:26:18;;;;;;;2.33;2.03;;;;;;;5.65;83.36;98209.11;1727018;80;21200;-60
2021/01/25 07:28:46;;;;;;;3.13;1.90;;;;;;;5.66;83.39;98208.17;1729621;80;21386;-61
2021/01/25 07:31:14;;;;;;;2.00;1.80;;;;;;;5.67;83.42;98205.43;1737515;80;21132;-60
2021/01/25 07:33:41;;;;;;;3.10;2.80;;;;;;;5.70;83.33;98207.05;1731679;80;21123;-60
2021/01/25 07:36:09;;;;;;;2.40;2.20;;;;;;;5.69;83.33;98215.56;1735833;80;21116;-61
2021/01/25 07:38:36;;;;;;;2.50;2.30;;;;;;;5.68;83.32;98216.97;1730681;80;21132;-60
2021/01/25 07:41:04;;;;;;;3.47;2.30;;;;;;;5.68;83.36;98203.63;1737927;80;21377;-64
2021/01/25 07:43:31;;;;;;;3.20;1.47;;;;;;;5.70;83.35;98207.91;1735326;80;21139;-60
2021/01/25 07:46:09;;;;;;;4.63;2.80;;;;;;;5.70;83.28;98197.23;1728207;80;21132;-60
2021/01/25 07:48:51;;;;;;;3.43;1.87;;;;;;;5.72;83.30;98187.81;1733207;80;21116;-62
2021/01/25 07:51:20;;;;;;;2.43;2.20;;;;;;;5.75;83.29;98180.13;1733574;80;21645;-61
2021/01/25 07:53:47;;;;;;;3.00;2.73;;;;;;;5.76;83.24;98180.05;1730978;80;21729;-60
2021/01/25 07:56:17;;;;;;;7.43;5.80;;;;;;;5.77;83.15;98166.23;1731033;80;21143;-61
2021/01/25 07:58:44;;;;;;;3.40;2.20;;;;;;;5.74;83.06;98185.94;1675430;84;21184;-60
2021/01/25 08:01:23;;;;;;;2.50;2.30;;;;;;;5.74;83.10;98193.94;1729947;80;21128;-62
2021/01/25 08:03:57;;;;;;;3.03;2.73;;;;;;;5.74;83.02;98191.75;1731723;80;21140;-59
2021/01/25 08:06:28;;;;;;;3.30;2.47;;;;;;;5.74;83.01;98193.08;1733655;80;21651;-61
2021/01/25 08:08:57;;;;;;;3.30;2.60;;;;;;;5.76;83.06;98186.72;1674452;84;21183;-60
2021/01/25 08:11:24;;;;;;;3.30;3.10;;;;;;;5.79;82.99;98183.87;1730260;80;21211;-60
2021/01/25 08:14:20;;;;;;;3.97;3.37;;;;;;;5.83;82.92;98188.11;1730682;80;21168;-60
2021/01/25 08:16:54;;;;;;;4.10;3.37;;;;;;;5.84;82.84;98164.95;1730614;80;21187;-61
2021/01/25 08:19:25;;;;;;;6.33;3.83;;;;;;;5.82;82.82;98169.03;1724981;80;21421;-61
2021/01/25 08:22:02;;;;;;;5.17;3.80;;;;;;;5.83;82.74;98174.77;1728244;80;21226;-62
2021/01/25 08:24:32;;;;;;;3.60;3.07;;;;;;;5.85;82.67;98172.88;1727459;80;21486;-62
2021/01/25 08:27:10;;;;;;;3.97;2.77;;;;;;;5.86;82.59;98177.75;1733404;80;21068;-60
2021/01/25 08:29:37;;;;;;;9.17;4.83;;;;;;;5.88;82.54;98172.73;1730646;80;21582;-60
2021/01/25 08:32:14;;;;;;;6.03;4.77;;;;;;;5.89;82.64;98175.79;1727418;80;23568;-62
2021/01/25 08:34:42;;;;;;;24.53;10.77;;;;;;;5.92;82.65;98161.42;1728628;80;21172;-61
2021/01/25 08:37:12;;;;;;;19.70;9.27;;;;;;;5.92;82.61;98150.27;1729758;80;21184;-61
2021/01/25 08:39:42;;;;;;;139.00;45.50;;;;;;;5.93;82.56;98147.98;1725802;80;21215;-60
2021/01/25 08:42:25;;;;;;;118.23;39.97;;;;;;;5.94;82.45;98151.05;1685580;82;21212;-61
2021/01/25 08:44:56;;;;;;;11.33;6.60;;;;;;;5.94;82.44;98151.05;1724766;81;21224;-60
2021/01/25 08:47:29;;;;;;;6.73;5.90;;;;;;;5.97;82.40;98163.35;1722350;81;21219;-59
2021/01/25 08:49:57;;;;;;;7.03;6.33;;;;;;;5.97;82.39;98158.88;1720100;81;21623;-62
2021/01/25 08:52:39;;;;;;;6.67;5.97;;;;;;;5.97;82.36;98146.86;1718128;81;21180;-62
2021/01/25 08:55:08;;;;;;;9.20;6.93;;;;;;;5.97;82.35;98144.19;1724127;81;21112;-60
2021/01/25 08:57:38;;;;;;;8.97;6.10;;;;;;;5.96;82.35;98150.94;1727569;81;21582;-61
2021/01/25 09:00:18;;;;;;;6.83;6.13;;;;;;;5.95;82.29;98146.57;1721237;81;21197;-60
2021/01/25 09:02:46;;;;;;;7.20;5.50;;;;;;;5.92;82.33;98151.59;1725153;81;21351;-60
2021/01/25 09:05:14;;;;;;;6.93;6.17;;;;;;;5.92;82.38;98136.05;1722060;81;21219;-61
2021/01/25 09:07:41;;;;;;;8.63;7.03;;;;;;;5.94;82.43;98131.49;1726363;81;21171;-60
2021/01/25 09:10:10;;;;;;;9.50;8.07;;;;;;;5.98;82.42;98129.89;1723975;81;21382;-60
2021/01/25 09:12:39;;;;;;;10.50;8.07;;;;;;;6.00;82.43;98125.80;1667177;84;21295;-60
2021/01/25 09:15:09;;;;;;;10.77;7.83;;;;;;;6.00;82.42;98136.02;1666319;84;21195;-60
2021/01/25 09:17:38;;;;;;;14.03;6.87;;;;;;;6.02;82.46;98128.78;1722187;81;21231;-60
2021/01/25 09:20:08;;;;;;;8.17;6.83;;;;;;;6.01;82.46;98121.72;1720416;81;21653;-63
2021/01/25 09:22:35;;;;;;;10.33;7.27;;;;;;;6.01;82.53;98116.84;1722987;81;22976;-60
2021/01/25 09:25:05;;;;;;;11.40;7.83;;;;;;;6.02;82.59;98099.88;1664865;84;21696;-60
2021/01/25 09:27:34;;;;;;;10.67;6.83;;;;;;;6.05;82.63;98094.34;1724400;81;21207;-61
2021/01/25 09:30:03;;;;;;;10.73;7.80;;;;;;;6.07;82.60;98101.33;1722161;81;21515;-61
2021/01/25 09:32:30;;;;;;;14.23;9.20;;;;;;;6.08;82.62;98112.88;1723563;81;21129;-61
2021/01/25 09:34:57;;;;;;;12.20;8.47;;;;;;;6.08;82.60;98111.08;1722798;81;21906;-60
2021/01/25 09:37:25;;;;;;;12.00;7.03;;;;;;;6.09;82.62;98107.93;1665097;84;21240;-63
2021/01/25 09:39:52;;;;;;;12.27;8.73;;;;;;;6.11;82.64;98095.36;1725618;81;21191;-60
2021/01/25 09:42:19;;;;;;;10.97;7.27;;;;;;;6.11;82.57;98088.68;1670653;84;22280;-60
2021/01/25 09:44:48;;;;;;;10.83;7.37;;;;;;;6.14;82.59;98086.28;1722165;81;21152;-60
2021/01/25 09:47:15;;;;;;;12.90;7.07;;;;;;;6.15;82.48;98096.89;1665199;84;21221;-64
2021/01/25 09:49:46;;;;;;;11.13;8.53;;;;;;;6.16;82.53;98083.06;1723455;81;21619;-59
2021/01/25 09:52:13;;;;;;;12.97;7.80;;;;;;;6.16;82.50;98081.25;1667844;84;21203;-60
2021/01/25 09:54:40;;;;;;;10.90;8.07;;;;;;;6.15;82.42;98065.30;1718254;81;21187;-59
2021/01/25 09:57:08;;;;;;;9.53;6.43;;;;;;;6.14;82.37;98060.91;1718208;81;21184;-60
2021/01/25 09:59:35;;;;;;;9.70;6.57;;;;;;;6.14;82.33;98060.44;1664933;84;21918;-60
2021/01/25 10:02:02;;;;;;;9.23;5.20;;;;;;;6.15;82.36;98059.48;1664670;84;21228;-61
2021/01/25 10:04:29;;;;;;;9.53;6.40;;;;;;;6.18;82.31;98054.45;1727422;81;21191;-61
2021/01/25 10:06:57;;;;;;;10.10;6.80;;;;;;;6.20;82.23;98041.87;1723647;81;21421;-61
2021/01/25 10:09:24;;;;;;;12.77;7.47;;;;;;;6.20;82.18;98031.19;1726213;81;21207;-61
2021/01/25 10:11:52;;;;;;;12.73;6.90;;;;;;;6.20;82.06;98028.05;1720859;81;21212;-61
2021/01/25 10:14:20;;;;;;;9.13;6.00;;;;;;;6.17;82.12;98016.19;1727923;81;21229;-61
2021/01/25 10:16:47;;;;;;;5.73;4.83;;;;;;;6.17;82.10;98009.98;1716267;81;21646;-62
2021/01/25 10:19:15;;;;;;;8.03;5.40;;;;;;;6.16;82.07;98013.13;1723965;81;21191;-62
2021/01/25 10:21:42;;;;;;;6.10;3.87;;;;;;;6.16;82.09;98000.25;1671336;84;21205;-60
2021/01/25 10:24:09;;;;;;;3.93;3.00;;;;;;;6.16;82.16;97997.09;1723311;81;21436;-61
2021/01/25 10:26:37;;;;;;;3.77;2.77;;;;;;;6.19;82.22;97985.38;1721061;81;21212;-61
2021/01/25 10:29:04;;;;;;;7.57;3.67;;;;;;;6.23;82.24;97994.45;1723974;81;21567;-63
2021/01/25 10:31:31;;;;;;;5.00;3.17;;;;;;;6.28;82.16;97991.52;1725289;81;21129;-61
2021/01/25 10:33:58;;;;;;;6.63;3.60;;;;;;;6.30;82.11;97982.45;1670605;84;21102;-63
2021/01/25 10:36:26;;;;;;;4.47;3.57;;;;;;;6.31;82.02;97979.30;1726743;81;21501;-61
2021/01/25 10:38:53;;;;;;;5.57;3.63;;;;;;;6.30;82.03;97986.45;1724515;81;21009;-62
2021/01/25 10:41:20;;;;;;;2.67;2.03;;;;;;;6.33;82.04;97966.72;1730427;81;21160;-62
2021/01/25 10:43:47;;;;;;;5.50;3.50;;;;;;;6.33;82.07;97961.38;1727745;81;21100;-61
2021/01/25 10:46:15;;;;;;;6.63;2.13;;;;;;;6.34;82.09;97965.77;1724597;81;21618;-61
2021/01/25 10:48:42;;;;;;;4.17;3.77;;;;;;;6.37;82.15;97962.92;1730120;81;21406;-61
2021/01/25 10:51:10;;;;;;;6.57;5.07;;;;;;;6.40;82.13;97954.23;1723719;81;21555;-63
2021/01/25 10:53:37;;;;;;;7.13;4.37;;;;;;;6.41;82.11;97943.93;1724113;81;21117;-61
2021/01/25 10:56:05;;;;;;;5.60;3.93;;;;;;;6.41;82.13;97943.06;1672034;84;21248;-63
2021/01/25 10:58:32;;;;;;;4.67;3.30;;;;;;;6.42;82.13;97929.62;1729594;81;21121;-62
2021/01/25 11:00:59;;;;;;;6.03;3.97;;;;;;;6.42;82.17;97931.43;1719768;81;21658;-61
2021/01/25 11:03:26;;;;;;;8.50;3.50;;;;;;;6.41;82.20;97924.36;1724239;81;21119;-61
2021/01/25 11:05:54;;;;;;;6.07;3.17;;;;;;;6.42;82.30;97919.41;1722741;81;21144;-61
2021/01/25 11:08:21;;;;;;;4.20;2.93;;;;;;;6.43;82.34;97915.78;1721232;81;21445;-63
2021/01/25 11:10:48;;;;;;;5.53;3.37;;;;;;;6.46;82.35;97912.94;1724056;81;21096;-64
2021/01/25 11:13:15;;;;;;;7.70;4.13;;;;;;;6.49;82.37;97907.86;1725468;81;21116;-61
2021/01/25 11:15:42;;;;;;;8.03;5.57;;;;;;;6.51;82.40;97896.60;1671399;84;21174;-61
2021/01/25 11:18:09;;;;;;;7.50;5.10;;;;;;;6.51;82.39;97881.42;1724957;81;21231;-60
2021/01/25 11:20:37;;;;;;;6.60;3.77;;;;;;;6.52;82.43;97883.63;1725723;81;21171;-61
2021/01/25 11:23:04;;;;;;;8.30;4.40;;;;;;;6.53;82.44;97891.55;1721995;81;21211;-61
2021/01/25 11:25:31;;;;;;;7.53;4.67;;;;;;;6.54;82.42;97889.74;1721048;81;22707;-60
2021/01/25 11:27:58;;;;;;;7.23;4.50;;;;;;;6.52;82.45;97885.83;1725839;81;21207;-64
2021/01/25 11:30:25;;;;;;;7.23;4.97;;;;;;;6.52;82.38;97887.16;1721579;81;21622;-61
2021/01/25 11:32:53;;;;;;;10.10;6.23;;;;;;;6.54;82.35;97881.72;1667028;84;21236;-60
2021/01/25 11:35:20;;;;;;;10.83;6.17;;;;;;;6.54;82.38;97878.58;1722982;81;21207;-61
2021/01/25 11:37:48;;;;;;;11.37;7.17;;;;;;;6.54;82.33;97869.22;1720401;81;21212;-61
2021/01/25 11:40:15;;;;;;;9.43;6.10;;;;;;;6.52;82.34;97870.27;1725391;81;21187;-61
2021/01/25 11:42:43;;;;;;;10.57;4.93;;;;;;;6.52;82.34;97860.91;1724522;81;21200;-61
2021/01/25 11:45:12;;;;;;;9.17;4.30;;;;;;;6.50;82.32;97859.66;1725481;81;21180;-64
2021/01/25 11:47:39;;;;;;;10.83;5.97;;;;;;;6.47;82.39;97857.16;1721282;81;21223;-61
2021/01/25 11:50:10;;;;;;;7.10;4.87;;;;;;;6.48;82.47;97854.88;1726427;81;21252;-61
2021/01/25 11:52:37;;;;;;;7.63;4.87;;;;;;;6.49;82.53;97838.36;1722844;81;21207;-61